Time;durP1;ratioP1;P1;durP2;ratioP2;P2;SDS_P1;SDS_P2;PMS_P1;PMS_P2;Temp;Humidity;BMP_temperature;BMP_pressure;BME280_temperature;BME280_humidity;BME280_pressure;Samples;Min_cycle;Max_cycle;Signal;HPM_P1;HPM_P2
2022/05/11 00:00:56;;;;;;;;;;;;;;;;;;5091242;27;19916;-73
2022/05/11 00:04:41;;;;;;;;;;;;;;;;;;5091580;28;19912;-73
2022/05/11 00:07:07;;;;;;;;;;;;;;;;;;5091212;28;19912;-73
2022/05/11 00:09:33;;;;;;;;;;;;;;;;;;5091194;28;19908;-72
2022/05/11 00:13:18;;;;;;;;;;;;;;;;;;5091070;27;19923;-73
2022/05/11 00:21:32;;;;;;;;;;;;;;;;;;5091344;27;19916;-73
2022/05/11 00:23:58;;;;;;;;;;;;;;;;;;5091172;28;20007;-73
2022/05/11 00:28:47;;;;;;;;;;;;;;;;;;5091783;27;19939;-74
2022/05/11 00:33:03;;;;;;;;;;;;;;;;;;5091188;27;20414;-73
2022/05/11 00:38:15;;;;;;;;;;;;;;;;;;5091915;27;20295;-75
2022/05/11 00:40:41;;;;;;;;;;;;;;;;;;5090869;28;19989;-73
2022/05/11 00:46:15;;;;;;;;;;;;;;;;;;5091762;27;19919;-73
2022/05/11 00:51:50;;;;;;;;;;;;;;;;;;5091404;27;19922;-73
2022/05/11 00:54:16;;;;;;;;;;;;;;;;;;5090807;28;20284;-75
2022/05/11 00:56:42;;;;;;;;;;;;;;;;;;5089780;28;19908;-73
2022/05/11 00:59:07;;;;;;;;;;;;;;;;;;5091130;28;19944;-74
2022/05/11 01:05:37;;;;;;;;;;;;;;;;;;5091374;28;19923;-73
2022/05/11 01:09:44;;;;;;;;;;;;;;;;;;5091032;27;19917;-73
2022/05/11 01:18:49;;;;;;;;;;;;;;;;;;5091757;27;19923;-73
2022/05/11 01:25:23;;;;;;;;;;;;;;;;;;5091784;27;19923;-73
2022/05/11 01:27:49;;;;;;;;;;;;;;;;;;5089905;28;19962;-73
2022/05/11 01:30:15;;;;;;;;;;;;;;;;;;5089391;28;19936;-73
2022/05/11 01:32:41;;;;;;;;;;;;;;;;;;5089783;28;19908;-74
2022/05/11 01:35:07;;;;;;;;;;;;;;;;;;5091572;28;19915;-73
2022/05/11 01:39:22;;;;;;;;;;;;;;;;;;5091500;27;19916;-73
2022/05/11 01:42:52;;;;;;;;;;;;;;;;;;5091449;28;19923;-73
2022/05/11 01:45:18;;;;;;;;;;;;;;;;;;5090806;28;20007;-73
2022/05/11 01:50:19;;;;;;;;;;;;;;;;;;5152778;27;20021;-74
2022/05/11 01:53:19;;;;;;;;;;;;;;;;;;5091263;27;20390;-73
2022/05/11 01:58:00;;;;;;;;;;;;;;;;;;5090873;27;19916;-73
2022/05/11 02:00:26;;;;;;;;;;;;;;;;;;5091208;28;20003;-73
2022/05/11 02:08:07;;;;;;;;;;;;;;;;;;5091998;27;20284;-73
2022/05/11 02:13:21;;;;;;;;;;;;;;;;;;5090890;27;20299;-73
2022/05/11 02:15:50;;;;;;;;;;;;;;;;;;5091250;28;19923;-73
2022/05/11 02:18:16;;;;;;;;;;;;;;;;;;5090778;28;20004;-73
2022/05/11 02:20:42;;;;;;;;;;;;;;;;;;5089862;28;19948;-73
2022/05/11 02:23:08;;;;;;;;;;;;;;;;;;5091097;28;19958;-73
2022/05/11 02:25:33;;;;;;;;;;;;;;;;;;5090588;28;19908;-73
2022/05/11 02:27:59;;;;;;;;;;;;;;;;;;5091189;28;19916;-73
2022/05/11 02:30:50;;;;;;;;;;;;;;;;;;5091573;27;19917;-74
2022/05/11 02:33:16;;;;;;;;;;;;;;;;;;5090777;28;19912;-74
2022/05/11 02:37:06;;;;;;;;;;;;;;;;;;5091322;27;19923;-74
2022/05/11 02:39:32;;;;;;;;;;;;;;;;;;5090902;28;19991;-73
2022/05/11 02:44:09;;;;;;;;;;;;;;;;;;5091983;27;19923;-74
2022/05/11 02:46:35;;;;;;;;;;;;;;;;;;5090825;28;19920;-73
2022/05/11 02:51:04;;;;;;;;;;;;;;;;;;5153059;27;20010;-73
2022/05/11 02:53:30;;;;;;;;;;;;;;;;;;5152858;27;19912;-73
2022/05/11 02:55:56;;;;;;;;;;;;;;;;;;5152678;27;19914;-73
2022/05/11 03:00:48;;;;;;;;;;;;;;;;;;5131906;27;20014;-73
2022/05/11 03:03:14;;;;;;;;;;;;;;;;;;5131988;28;19912;-74
2022/05/11 03:05:40;;;;;;;;;;;;;;;;;;5131936;27;19916;-73
2022/05/11 03:08:25;;;;;;;;;;;;;;;;;;5091330;28;19923;-73
2022/05/11 03:10:52;;;;;;;;;;;;;;;;;;5091301;28;19995;-74
2022/05/11 03:13:18;;;;;;;;;;;;;;;;;;5091273;28;19909;-74
2022/05/11 03:15:44;;;;;;;;;;;;;;;;;;5090919;28;19916;-74
2022/05/11 03:18:10;;;;;;;;;;;;;;;;;;5090990;28;20000;-73
2022/05/11 03:20:36;;;;;;;;;;;;;;;;;;5091001;28;19912;-74
2022/05/11 03:23:02;;;;;;;;;;;;;;;;;;5090610;28;20276;-73
2022/05/11 03:25:28;;;;;;;;;;;;;;;;;;5090963;28;19909;-74
2022/05/11 03:27:54;;;;;;;;;;;;;;;;;;5090747;28;19923;-74
2022/05/11 03:30:20;;;;;;;;;;;;;;;;;;5090492;28;20373;-74
2022/05/11 03:35:30;;;;;;;;;;;;;;;;;;5090838;28;19915;-74
2022/05/11 03:37:56;;;;;;;;;;;;;;;;;;5090321;28;19908;-73
2022/05/11 03:40:22;;;;;;;;;;;;;;;;;;5090840;28;19915;-74
2022/05/11 03:42:48;;;;;;;;;;;;;;;;;;5090245;28;19909;-73
2022/05/11 03:45:14;;;;;;;;;;;;;;;;;;5090668;28;19909;-74
2022/05/11 03:47:40;;;;;;;;;;;;;;;;;;5090487;28;19916;-73
2022/05/11 03:50:06;;;;;;;;;;;;;;;;;;5088762;28;20397;-69
2022/05/11 03:52:32;;;;;;;;;;;;;;;;;;5090372;28;19913;-70
2022/05/11 03:54:58;;;;;;;;;;;;;;;;;;5090376;28;19916;-70
2022/05/11 03:57:24;;;;;;;;;;;;;;;;;;5090288;28;20010;-70
2022/05/11 03:59:50;;;;;;;;;;;;;;;;;;5088989;28;19948;-70
2022/05/11 04:02:16;;;;;;;;;;;;;;;;;;5090538;28;19908;-70
2022/05/11 04:04:42;;;;;;;;;;;;;;;;;;5089801;28;19909;-70
2022/05/11 04:07:08;;;;;;;;;;;;;;;;;;5099839;28;20349;-70
2022/05/11 04:09:34;;;;;;;;;;;;;;;;;;5110813;28;19962;-70
2022/05/11 04:12:00;;;;;;;;;;;;;;;;;;5110068;28;19908;-70
2022/05/11 04:14:26;;;;;;;;;;;;;;;;;;5110376;28;20391;-71
2022/05/11 04:16:51;;;;;;;;;;;;;;;;;;5110301;28;19915;-71
2022/05/11 04:19:18;;;;;;;;;;;;;;;;;;5098842;28;19908;-71
2022/05/11 04:21:44;;;;;;;;;;;;;;;;;;5096578;28;20382;-71
2022/05/11 04:24:10;;;;;;;;;;;;;;;;;;5096849;28;19908;-72
2022/05/11 04:26:36;;;;;;;;;;;;;;;;;;5095918;28;20306;-71
2022/05/11 04:29:02;;;;;;;;;;;;;;;;;;5096778;28;20287;-71
2022/05/11 04:31:28;;;;;;;;;;;;;;;;;;5096443;28;19940;-71
2022/05/11 04:33:54;;;;;;;;;;;;;;;;;;5096012;28;19935;-70
2022/05/11 04:36:21;;;;;;;;;;;;;;;;;;5078256;28;19958;-70
2022/05/11 04:38:47;;;;;;;;;;;;;;;;;;5096603;28;19908;-71
2022/05/11 04:43:10;;;;;;;;;;;;;;;;;;5091551;27;19923;-71
2022/05/11 04:45:36;;;;;;;;;;;;;;;;;;5091290;28;19958;-71
2022/05/11 04:48:02;;;;;;;;;;;;;;;;;;5090819;28;19908;-71
2022/05/11 04:50:28;;;;;;;;;;;;;;;;;;5089720;28;19967;-71
2022/05/11 04:52:54;;;;;;;;;;;;;;;;;;5089782;28;19908;-70
2022/05/11 04:58:58;;;;;;;;;;;;;;;;;;5153324;27;20446;-68
2022/05/11 05:01:24;;;;;;;;;;;;;;;;;;5133819;27;19937;-69
2022/05/11 05:03:50;;;;;;;;;;;;;;;;;;5152899;27;19908;-68
2022/05/11 05:06:16;;;;;;;;;;;;;;;;;;5134256;27;20386;-69
2022/05/11 05:10:16;;;;;;;;;;;;;;;;;;5112022;27;19916;-70
2022/05/11 05:15:44;;;;;;;;;;;;;;;;;;5126413;27;19919;-68
2022/05/11 05:18:10;;;;;;;;;;;;;;;;;;5127321;27;19912;-67
2022/05/11 05:23:45;;;;;;;;;;;;;;;;;;5148746;27;20278;-67
2022/05/11 05:27:06;;;;;;;;;;;;;;;;;;5106352;27;19916;-67
2022/05/11 05:34:11;;;;;;;;;;;;;;;;;;5106736;27;19916;-67
2022/05/11 05:36:37;;;;;;;;;;;;;;;;;;5104944;28;19916;-67
2022/05/11 05:39:03;;;;;;;;;;;;;;;;;;5107940;28;20044;-67
2022/05/11 05:41:45;;;;;;;;;;;;;;;;;;5107085;27;19913;-66
2022/05/11 05:46:53;;;;;;;;;;;;;;;;;;5089302;27;2244419;-67
2022/05/11 05:49:19;;;;;;;;;;;;;;;;;;5147341;27;20275;-68
2022/05/11 05:51:45;;;;;;;;;;;;;;;;;;5152163;27;19908;-67
2022/05/11 05:54:11;;;;;;;;;;;;;;;;;;5134052;27;19964;-69
2022/05/11 05:56:37;;;;;;;;;;;;;;;;;;5158217;27;19998;-70
2022/05/11 06:07:14;;;;;;;;;;;;;;;;;;5066711;28;19920;-67
2022/05/11 06:09:40;;;;;;;;;;;;;;;;;;5068610;28;20315;-69
2022/05/11 06:16:25;;;;;;;;;;;;;;;;;;5088898;27;19919;-67
2022/05/11 06:18:53;;;;;;;;;;;;;;;;;;5084780;28;19916;-67
2022/05/11 06:21:19;;;;;;;;;;;;;;;;;;5089671;28;19940;-67
2022/05/11 06:23:45;;;;;;;;;;;;;;;;;;5082385;28;19947;-68
2022/05/11 06:29:22;;;;;;;;;;;;;;;;;;5076175;27;20029;-67
2022/05/11 06:31:48;;;;;;;;;;;;;;;;;;5064703;28;20469;-68
2022/05/11 06:35:23;;;;;;;;;;;;;;;;;;5149386;27;20005;-67
2022/05/11 06:37:51;;;;;;;;;;;;;;;;;;5113335;27;19985;-67
2022/05/11 06:42:24;;;;;;;;;;;;;;;;;;5083142;27;19921;-70
2022/05/11 06:45:34;;;;;;;;;;;;;;;;;;5109890;27;19913;-69
2022/05/11 06:48:00;;;;;;;;;;;;;;;;;;5128438;28;20367;-69
2022/05/11 06:50:27;;;;;;;;;;;;;;;;;;5118920;27;20283;-69
2022/05/11 07:00:25;;;;;;;;;;;;;;;;;;5063031;28;19971;-66
2022/05/11 07:04:15;;;;;;;;;;;;;;;;;;5088250;27;19920;-66
2022/05/11 07:09:56;;;;;;;;;;;;;;;;;;5087162;27;19932;-67
2022/05/11 07:14:51;;;;;;;;;;;;;;;;;;5087334;28;20289;-67
2022/05/11 07:20:34;;;;;;;;;;;;;;;;;;5096463;27;19920;-67
2022/05/11 07:27:18;;;;;;;;;;;;;;;;;;5149535;27;19915;-66
2022/05/11 07:29:44;;;;;;;;;;;;;;;;;;5127427;27;19955;-66
2022/05/11 07:32:10;;;;;;;;;;;;;;;;;;5121651;27;20364;-66
2022/05/11 07:34:36;;;;;;;;;;;;;;;;;;5123528;27;20014;-65
2022/05/11 07:38:11;;;;;;;;;;;;;;;;;;5111244;27;20329;-66
2022/05/11 07:40:37;;;;;;;;;;;;;;;;;;5087358;28;19917;-65
2022/05/11 07:49:22;;;;;;;;;;;;;;;;;;5078675;27;19921;-66
2022/05/11 07:55:02;;;;;;;;;;;;;;;;;;5093358;27;19921;-68
2022/05/11 08:00:13;;;;;;;;;;;;;;;;;;5087379;28;20287;-69
2022/05/11 08:02:50;;;;;;;;;;;;;;;;;;5088219;27;19920;-67
2022/05/11 08:05:16;;;;;;;;;;;;;;;;;;5100515;28;19918;-68
2022/05/11 08:07:42;;;;;;;;;;;;;;;;;;5090063;28;19950;-68
2022/05/11 08:10:08;;;;;;;;;;;;;;;;;;5093606;28;19916;-68
2022/05/11 08:13:08;;;;;;;;;;;;;;;;;;5090358;27;19926;-68
2022/05/11 08:15:50;;;;;;;;;;;;;;;;;;5091147;27;20312;-68
2022/05/11 08:20:03;;;;;;;;;;;;;;;;;;5125286;27;20537;-68
2022/05/11 08:22:30;;;;;;;;;;;;;;;;;;5112682;27;19912;-69
2022/05/11 08:26:52;;;;;;;;;;;;;;;;;;5088047;27;19913;-68
2022/05/11 08:36:16;;;;;;;;;;;;;;;;;;5115085;27;19920;-68
2022/05/11 08:38:42;;;;;;;;;;;;;;;;;;5108616;28;20324;-69
2022/05/11 08:42:05;;;;;;;;;;;;;;;;;;5089719;27;19920;-67
2022/05/11 08:44:34;;;;;;;;;;;;;;;;;;5087729;28;19920;-67
2022/05/11 08:47:00;;;;;;;;;;;;;;;;;;5086852;28;19995;-69
2022/05/11 08:49:26;;;;;;;;;;;;;;;;;;5087492;28;19947;-70
2022/05/11 08:51:52;;;;;;;;;;;;;;;;;;5075814;28;19921;-69
2022/05/11 08:56:04;;;;;;;;;;;;;;;;;;5089606;27;19939;-68
2022/05/11 08:58:30;;;;;;;;;;;;;;;;;;5089712;28;19955;-70
2022/05/11 09:01:42;;;;;;;;;;;;;;;;;;5150541;27;19915;-71
2022/05/11 09:04:09;;;;;;;;;;;;;;;;;;5149912;27;19960;-71
2022/05/11 09:07:47;;;;;;;;;;;;;;;;;;5084625;27;19924;-69
2022/05/11 09:10:13;;;;;;;;;;;;;;;;;;5086043;28;19958;-70
2022/05/11 09:13:09;;;;;;;;;;;;;;;;;;5089108;28;19916;-69
2022/05/11 09:19:01;;;;;;;;;;;;;;;;;;5088263;27;19920;-70
2022/05/11 09:21:29;;;;;;;;;;;;;;;;;;5068651;28;19917;-71
2022/05/11 09:23:55;;;;;;;;;;;;;;;;;;5066653;28;19908;-71
2022/05/11 09:26:21;;;;;;;;;;;;;;;;;;5054949;28;19925;-70
2022/05/11 09:28:47;;;;;;;;;;;;;;;;;;5069008;28;19909;-69
2022/05/11 09:31:13;;;;;;;;;;;;;;;;;;5071399;28;20400;-70
2022/05/11 09:33:39;;;;;;;;;;;;;;;;;;5063952;28;19909;-69
2022/05/11 09:36:35;;;;;;;;;;;;;;;;;;5089503;27;19920;-67
2022/05/11 09:39:01;;;;;;;;;;;;;;;;;;5090234;28;19912;-70
2022/05/11 09:41:27;;;;;;;;;;;;;;;;;;5086778;28;20002;-70
2022/05/11 09:43:54;;;;;;;;;;;;;;;;;;5068217;28;19913;-70
2022/05/11 09:46:20;;;;;;;;;;;;;;;;;;5067056;28;19909;-70
2022/05/11 09:48:46;;;;;;;;;;;;;;;;;;5083492;28;19913;-67
2022/05/11 09:51:50;;;;;;;;;;;;;;;;;;5082993;27;20590;-66
2022/05/11 09:54:16;;;;;;;;;;;;;;;;;;5066291;28;19912;-67
2022/05/11 09:56:44;;;;;;;;;;;;;;;;;;5067318;28;20523;-67
2022/05/11 09:59:13;;;;;;;;;;;;;;;;;;5067897;28;20336;-68
2022/05/11 10:01:40;;;;;;;;;;;;;;;;;;5068827;28;20284;-68
2022/05/11 10:04:06;;;;;;;;;;;;;;;;;;5072890;28;19913;-68
2022/05/11 10:06:35;;;;;;;;;;;;;;;;;;5066912;28;19958;-67
2022/05/11 10:09:01;;;;;;;;;;;;;;;;;;5066420;28;19917;-68
2022/05/11 10:11:27;;;;;;;;;;;;;;;;;;5066613;28;19952;-67
2022/05/11 10:13:53;;;;;;;;;;;;;;;;;;5078685;28;19908;-66
2022/05/11 10:22:02;;;;;;;;;;;;;;;;;;5066998;28;19958;-70
2022/05/11 10:24:28;;;;;;;;;;;;;;;;;;5065751;28;19909;-69
2022/05/11 10:26:54;;;;;;;;;;;;;;;;;;5065611;28;20142;-69
2022/05/11 10:29:20;;;;;;;;;;;;;;;;;;5064233;28;19909;-69
2022/05/11 10:31:46;;;;;;;;;;;;;;;;;;5069581;28;19912;-69
2022/05/11 10:34:12;;;;;;;;;;;;;;;;;;5084912;28;19913;-70
2022/05/11 10:36:38;;;;;;;;;;;;;;;;;;5085773;28;20007;-69
2022/05/11 10:39:04;;;;;;;;;;;;;;;;;;5084864;28;20527;-69
2022/05/11 10:41:30;;;;;;;;;;;;;;;;;;5084627;28;19915;-69
2022/05/11 10:43:57;;;;;;;;;;;;;;;;;;5085617;28;19915;-70
2022/05/11 10:46:23;;;;;;;;;;;;;;;;;;5089777;28;19920;-70
2022/05/11 10:48:49;;;;;;;;;;;;;;;;;;5086612;28;19913;-71
2022/05/11 10:51:15;;;;;;;;;;;;;;;;;;5086957;28;19908;-70
2022/05/11 10:53:41;;;;;;;;;;;;;;;;;;5087963;28;20553;-71
2022/05/11 10:56:07;;;;;;;;;;;;;;;;;;5088628;28;19916;-69
2022/05/11 10:58:33;;;;;;;;;;;;;;;;;;5089335;28;19913;-68
2022/05/11 11:00:59;;;;;;;;;;;;;;;;;;5089325;28;19908;-70
2022/05/11 11:03:25;;;;;;;;;;;;;;;;;;5088988;28;19908;-71
2022/05/11 11:08:36;;;;;;;;;;;;;;;;;;5089620;28;19919;-69
2022/05/11 11:11:02;;;;;;;;;;;;;;;;;;5089227;28;20066;-68
2022/05/11 11:13:28;;;;;;;;;;;;;;;;;;5089267;28;19942;-69
2022/05/11 11:15:54;;;;;;;;;;;;;;;;;;5104620;28;19920;-69
2022/05/11 11:18:20;;;;;;;;;;;;;;;;;;5109248;28;19915;-71
2022/05/11 11:20:46;;;;;;;;;;;;;;;;;;5109784;28;20406;-70
2022/05/11 11:23:13;;;;;;;;;;;;;;;;;;5109773;28;19912;-70
2022/05/11 11:25:39;;;;;;;;;;;;;;;;;;5108950;28;19994;-70
2022/05/11 11:28:08;;;;;;;;;;;;;;;;;;5094450;28;19991;-70
2022/05/11 11:30:34;;;;;;;;;;;;;;;;;;5095029;28;19915;-70
2022/05/11 11:33:00;;;;;;;;;;;;;;;;;;5095637;28;19958;-68
2022/05/11 11:35:26;;;;;;;;;;;;;;;;;;5094392;28;19917;-70
2022/05/11 11:37:52;;;;;;;;;;;;;;;;;;5095930;28;20394;-69
2022/05/11 11:40:21;;;;;;;;;;;;;;;;;;5095927;28;19912;-69
2022/05/11 11:42:47;;;;;;;;;;;;;;;;;;5094991;28;19968;-68
2022/05/11 11:45:18;;;;;;;;;;;;;;;;;;5095726;28;20352;-68
2022/05/11 11:47:44;;;;;;;;;;;;;;;;;;5094887;28;19912;-66
2022/05/11 11:50:11;;;;;;;;;;;;;;;;;;5095407;28;20313;-65
2022/05/11 11:52:37;;;;;;;;;;;;;;;;;;5094879;28;19919;-66
2022/05/11 11:55:03;;;;;;;;;;;;;;;;;;5095322;28;19916;-66
2022/05/11 11:57:29;;;;;;;;;;;;;;;;;;5095619;28;19927;-66
2022/05/11 11:59:56;;;;;;;;;;;;;;;;;;5095291;28;19908;-67
2022/05/11 12:02:22;;;;;;;;;;;;;;;;;;5094502;28;19911;-67
2022/05/11 12:04:48;;;;;;;;;;;;;;;;;;5095389;28;20347;-67
2022/05/11 12:15:30;;;;;;;;;;;;;;;;;;5095082;28;19927;-66
2022/05/11 12:17:56;;;;;;;;;;;;;;;;;;5094852;28;20399;-66
2022/05/11 12:20:22;;;;;;;;;;;;;;;;;;5077249;28;20293;-67
2022/05/11 12:22:48;;;;;;;;;;;;;;;;;;5076845;28;19923;-66
2022/05/11 12:25:14;;;;;;;;;;;;;;;;;;5092745;28;19909;-67
2022/05/11 12:27:40;;;;;;;;;;;;;;;;;;5092743;28;19908;-68
2022/05/11 12:30:06;;;;;;;;;;;;;;;;;;5091159;28;19939;-68
2022/05/11 12:32:32;;;;;;;;;;;;;;;;;;5090794;28;20063;-67
2022/05/11 12:34:58;;;;;;;;;;;;;;;;;;5091725;28;20356;-67
2022/05/11 12:37:24;;;;;;;;;;;;;;;;;;5073100;28;19912;-67
2022/05/11 12:39:50;;;;;;;;;;;;;;;;;;5092325;28;19961;-69
2022/05/11 12:42:16;;;;;;;;;;;;;;;;;;5094014;28;20257;-67
2022/05/11 12:44:42;;;;;;;;;;;;;;;;;;5076289;28;19944;-67
2022/05/11 12:47:08;;;;;;;;;;;;;;;;;;5093833;28;19916;-67
2022/05/11 12:49:34;;;;;;;;;;;;;;;;;;5092983;28;19908;-68
2022/05/11 12:52:05;;;;;;;;;;;;;;;;;;5092549;28;19960;-67
2022/05/11 12:54:34;;;;;;;;;;;;;;;;;;5093114;28;19919;-67
2022/05/11 12:57:01;;;;;;;;;;;;;;;;;;5093492;28;19954;-69
2022/05/11 12:59:28;;;;;;;;;;;;;;;;;;5093191;28;19942;-69
2022/05/11 13:01:54;;;;;;;;;;;;;;;;;;5093697;28;20364;-69
2022/05/11 13:04:20;;;;;;;;;;;;;;;;;;5095025;28;20054;-69
2022/05/11 13:06:46;;;;;;;;;;;;;;;;;;5076213;28;19937;-69
2022/05/11 13:09:12;;;;;;;;;;;;;;;;;;5094737;28;20425;-69
2022/05/11 13:11:38;;;;;;;;;;;;;;;;;;5094717;28;19908;-69
2022/05/11 13:14:04;;;;;;;;;;;;;;;;;;5094299;28;19908;-68
2022/05/11 13:16:31;;;;;;;;;;;;;;;;;;5094947;28;20291;-69
2022/05/11 13:18:57;;;;;;;;;;;;;;;;;;5094895;28;19916;-69
2022/05/11 13:21:23;;;;;;;;;;;;;;;;;;5094004;28;19930;-69
2022/05/11 13:23:49;;;;;;;;;;;;;;;;;;5094468;28;19908;-69
2022/05/11 13:26:15;;;;;;;;;;;;;;;;;;5094364;28;19908;-69
2022/05/11 13:28:42;;;;;;;;;;;;;;;;;;5093997;28;19918;-69
2022/05/11 13:31:08;;;;;;;;;;;;;;;;;;5094827;28;20386;-69
2022/05/11 13:33:34;;;;;;;;;;;;;;;;;;5094025;28;20002;-68
2022/05/11 13:36:00;;;;;;;;;;;;;;;;;;5094226;28;19951;-68
2022/05/11 13:38:26;;;;;;;;;;;;;;;;;;5094115;28;19915;-68
2022/05/11 13:40:52;;;;;;;;;;;;;;;;;;5093955;28;19908;-68
2022/05/11 13:43:18;;;;;;;;;;;;;;;;;;5094108;28;19915;-68
2022/05/11 13:45:44;;;;;;;;;;;;;;;;;;5094162;28;19955;-68
2022/05/11 13:48:13;;;;;;;;;;;;;;;;;;5093709;28;19908;-68
2022/05/11 13:50:39;;;;;;;;;;;;;;;;;;5094043;28;19908;-68
2022/05/11 13:53:05;;;;;;;;;;;;;;;;;;5075816;28;19961;-68
2022/05/11 13:55:31;;;;;;;;;;;;;;;;;;5093479;28;20011;-68
2022/05/11 13:57:57;;;;;;;;;;;;;;;;;;5075734;28;20046;-68
2022/05/11 14:00:24;;;;;;;;;;;;;;;;;;5093965;28;19920;-68
2022/05/11 14:02:51;;;;;;;;;;;;;;;;;;5075310;28;19908;-68
2022/05/11 14:05:16;;;;;;;;;;;;;;;;;;5094101;28;20322;-68
2022/05/11 14:07:43;;;;;;;;;;;;;;;;;;5075744;28;19916;-68
2022/05/11 14:10:09;;;;;;;;;;;;;;;;;;5093450;28;19908;-68
2022/05/11 14:12:34;;;;;;;;;;;;;;;;;;5094097;28;19908;-68
2022/05/11 14:15:03;;;;;;;;;;;;;;;;;;5093480;28;20364;-68
2022/05/11 14:17:29;;;;;;;;;;;;;;;;;;5093405;28;19914;-69
2022/05/11 14:19:55;;;;;;;;;;;;;;;;;;5093901;28;20003;-68
2022/05/11 14:22:21;;;;;;;;;;;;;;;;;;5093901;28;19908;-68
2022/05/11 14:24:47;;;;;;;;;;;;;;;;;;5093340;28;19908;-68
2022/05/11 14:27:17;;;;;;;;;;;;;;;;;;5093749;28;19953;-69
2022/05/11 14:29:44;;;;;;;;;;;;;;;;;;5075278;28;19920;-69
2022/05/11 14:32:10;;;;;;;;;;;;;;;;;;5093636;28;20382;-69
2022/05/11 14:34:36;;;;;;;;;;;;;;;;;;5094073;28;19978;-70
2022/05/11 14:37:02;;;;;;;;;;;;;;;;;;5093381;28;20257;-69
2022/05/11 14:39:28;;;;;;;;;;;;;;;;;;5093561;28;19908;-68
2022/05/11 14:41:55;;;;;;;;;;;;;;;;;;5093515;28;19942;-68
2022/05/11 14:44:21;;;;;;;;;;;;;;;;;;5093095;28;19908;-68
2022/05/11 14:46:48;;;;;;;;;;;;;;;;;;5093642;28;19915;-67
2022/05/11 14:49:14;;;;;;;;;;;;;;;;;;5093346;28;19951;-69
2022/05/11 14:51:41;;;;;;;;;;;;;;;;;;5093135;28;19931;-68
2022/05/11 14:54:07;;;;;;;;;;;;;;;;;;5093381;28;19914;-68
2022/05/11 14:56:34;;;;;;;;;;;;;;;;;;5093359;28;19920;-68
2022/05/11 15:02:04;;;;;;;;;;;;;;;;;;5094655;28;19954;-69
2022/05/11 15:04:30;;;;;;;;;;;;;;;;;;5079034;28;19915;-68
2022/05/11 15:06:56;;;;;;;;;;;;;;;;;;5096863;28;19970;-68
2022/05/11 15:09:23;;;;;;;;;;;;;;;;;;5097096;28;19909;-69
2022/05/11 15:14:36;;;;;;;;;;;;;;;;;;5096814;28;19970;-69
2022/05/11 15:17:02;;;;;;;;;;;;;;;;;;5097043;28;19908;-69
2022/05/11 15:19:28;;;;;;;;;;;;;;;;;;5096283;28;19977;-69
2022/05/11 15:21:54;;;;;;;;;;;;;;;;;;5097179;28;19908;-68
2022/05/11 15:24:20;;;;;;;;;;;;;;;;;;5096808;28;19919;-69
2022/05/11 15:26:46;;;;;;;;;;;;;;;;;;5096363;28;20283;-68
2022/05/11 15:29:12;;;;;;;;;;;;;;;;;;5078571;28;19915;-69
2022/05/11 15:31:38;;;;;;;;;;;;;;;;;;5096642;28;19908;-69
2022/05/11 15:34:04;;;;;;;;;;;;;;;;;;5096111;28;20003;-69
2022/05/11 15:36:30;;;;;;;;;;;;;;;;;;5096540;28;20352;-69
2022/05/11 15:38:56;;;;;;;;;;;;;;;;;;5096609;28;19915;-69
2022/05/11 15:41:22;;;;;;;;;;;;;;;;;;5096059;28;20422;-69
2022/05/11 15:43:48;;;;;;;;;;;;;;;;;;5096756;28;19908;-69
2022/05/11 15:46:13;;;;;;;;;;;;;;;;;;5096464;28;20343;-69
2022/05/11 15:48:39;;;;;;;;;;;;;;;;;;5077746;28;19953;-69
2022/05/11 15:51:05;;;;;;;;;;;;;;;;;;5096508;28;19910;-68
2022/05/11 15:53:33;;;;;;;;;;;;;;;;;;5096241;28;19912;-68
2022/05/11 15:55:59;;;;;;;;;;;;;;;;;;5095680;28;19923;-68
2022/05/11 15:58:25;;;;;;;;;;;;;;;;;;5077913;28;19908;-69
2022/05/11 16:00:51;;;;;;;;;;;;;;;;;;5095997;28;19908;-68
2022/05/11 16:03:17;;;;;;;;;;;;;;;;;;5095580;28;20003;-69
2022/05/11 16:05:43;;;;;;;;;;;;;;;;;;5095879;28;19915;-68
2022/05/11 16:08:09;;;;;;;;;;;;;;;;;;5095823;28;19916;-68
2022/05/11 16:10:35;;;;;;;;;;;;;;;;;;5077923;28;20360;-68
2022/05/11 16:13:01;;;;;;;;;;;;;;;;;;5096258;28;19961;-69
2022/05/11 16:15:28;;;;;;;;;;;;;;;;;;5095146;28;19927;-69
2022/05/11 16:20:39;;;;;;;;;;;;;;;;;;5095802;28;19915;-68
2022/05/11 16:23:06;;;;;;;;;;;;;;;;;;5095238;28;19908;-68
2022/05/11 16:25:32;;;;;;;;;;;;;;;;;;5095564;28;20016;-68
2022/05/11 16:27:58;;;;;;;;;;;;;;;;;;5095497;28;19908;-68
2022/05/11 16:30:24;;;;;;;;;;;;;;;;;;5095035;28;19923;-68
2022/05/11 16:32:50;;;;;;;;;;;;;;;;;;5095579;28;19962;-68
2022/05/11 16:35:16;;;;;;;;;;;;;;;;;;5095258;28;19916;-68
2022/05/11 16:37:42;;;;;;;;;;;;;;;;;;5094902;28;19912;-68
2022/05/11 16:40:08;;;;;;;;;;;;;;;;;;5095311;28;19948;-68
2022/05/11 16:42:34;;;;;;;;;;;;;;;;;;5095256;28;19953;-68
2022/05/11 16:45:00;;;;;;;;;;;;;;;;;;5094739;28;19954;-68
2022/05/11 16:47:26;;;;;;;;;;;;;;;;;;5076961;28;19912;-67
2022/05/11 16:51:02;;;;;;;;;;;;;;;;;;5090980;27;20353;-68
2022/05/11 16:53:28;;;;;;;;;;;;;;;;;;5091536;28;20011;-68
2022/05/11 16:55:54;;;;;;;;;;;;;;;;;;5091148;28;20261;-68
2022/05/11 16:58:22;;;;;;;;;;;;;;;;;;5091110;28;19913;-68
2022/05/11 17:00:48;;;;;;;;;;;;;;;;;;5091094;28;20338;-68
2022/05/11 17:03:14;;;;;;;;;;;;;;;;;;5090981;28;19916;-68
2022/05/11 17:06:10;;;;;;;;;;;;;;;;;;5090993;28;19922;-67
2022/05/11 17:08:36;;;;;;;;;;;;;;;;;;5091361;28;19913;-68
2022/05/11 17:11:03;;;;;;;;;;;;;;;;;;5091162;28;19908;-68
2022/05/11 17:13:50;;;;;;;;;;;;;;;;;;5091261;27;20368;-69
2022/05/11 17:16:16;;;;;;;;;;;;;;;;;;5091741;28;19912;-69
2022/05/11 17:18:42;;;;;;;;;;;;;;;;;;5090348;28;20402;-69
2022/05/11 17:21:08;;;;;;;;;;;;;;;;;;5090979;28;19913;-69
2022/05/11 17:23:34;;;;;;;;;;;;;;;;;;5091036;28;19916;-69
2022/05/11 17:26:00;;;;;;;;;;;;;;;;;;5090666;28;19951;-68
2022/05/11 17:28:26;;;;;;;;;;;;;;;;;;5091025;28;20352;-69
2022/05/11 17:30:52;;;;;;;;;;;;;;;;;;5090824;28;19909;-69
2022/05/11 17:35:09;;;;;;;;;;;;;;;;;;5091361;28;20406;-68
2022/05/11 17:37:35;;;;;;;;;;;;;;;;;;5091216;28;19913;-68
2022/05/11 17:40:01;;;;;;;;;;;;;;;;;;5090790;28;20383;-68
2022/05/11 17:42:27;;;;;;;;;;;;;;;;;;5091210;28;19913;-69
2022/05/11 17:46:24;;;;;;;;;;;;;;;;;;5091367;27;19922;-67
2022/05/11 17:48:50;;;;;;;;;;;;;;;;;;5090708;28;20340;-68
2022/05/11 17:51:16;;;;;;;;;;;;;;;;;;5091333;28;19999;-68
2022/05/11 17:53:42;;;;;;;;;;;;;;;;;;5090764;28;19912;-69
2022/05/11 17:57:17;;;;;;;;;;;;;;;;;;5091443;27;19916;-68
2022/05/11 18:01:11;;;;;;;;;;;;;;;;;;5091029;27;19939;-67
2022/05/11 18:03:36;;;;;;;;;;;;;;;;;;5091181;28;19979;-68
2022/05/11 18:07:18;;;;;;;;;;;;;;;;;;5091397;27;19938;-68
2022/05/11 18:11:26;;;;;;;;;;;;;;;;;;5153001;27;20022;-69
2022/05/11 18:13:52;;;;;;;;;;;;;;;;;;5152763;27;19911;-69
2022/05/11 18:16:18;;;;;;;;;;;;;;;;;;5152355;27;19961;-68
2022/05/11 18:21:20;;;;;;;;;;;;;;;;;;5091452;28;19913;-67
2022/05/11 18:23:46;;;;;;;;;;;;;;;;;;5090818;28;19912;-68
2022/05/11 18:27:27;;;;;;;;;;;;;;;;;;5091276;28;20410;-68
2022/05/11 18:29:53;;;;;;;;;;;;;;;;;;5090695;28;20011;-68
2022/05/11 18:32:19;;;;;;;;;;;;;;;;;;5091050;28;20372;-68
2022/05/11 18:34:45;;;;;;;;;;;;;;;;;;5091128;28;19991;-67
2022/05/11 18:37:12;;;;;;;;;;;;;;;;;;5090706;28;20300;-68
2022/05/11 18:39:38;;;;;;;;;;;;;;;;;;5091068;28;19908;-69
2022/05/11 18:45:22;;;;;;;;;;;;;;;;;;5091327;27;19917;-68
2022/05/11 18:50:12;;;;;;;;;;;;;;;;;;5091534;27;19922;-68
2022/05/11 18:54:08;;;;;;;;;;;;;;;;;;5091571;27;19923;-67
2022/05/11 18:56:34;;;;;;;;;;;;;;;;;;5089839;28;20383;-68
2022/05/11 18:59:27;;;;;;;;;;;;;;;;;;5091523;27;19916;-68
2022/05/11 19:01:53;;;;;;;;;;;;;;;;;;5091212;28;19934;-68
2022/05/11 19:04:19;;;;;;;;;;;;;;;;;;5090811;28;19912;-68
2022/05/11 19:09:01;;;;;;;;;;;;;;;;;;5091298;27;19916;-66
2022/05/11 19:13:58;;;;;;;;;;;;;;;;;;5091338;27;19938;-69
2022/05/11 19:17:41;;;;;;;;;;;;;;;;;;5091306;27;19922;-68
2022/05/11 19:20:07;;;;;;;;;;;;;;;;;;5090693;28;19954;-67
2022/05/11 19:22:33;;;;;;;;;;;;;;;;;;5091130;28;19909;-68
2022/05/11 19:24:59;;;;;;;;;;;;;;;;;;5091082;28;19908;-68
2022/05/11 19:27:25;;;;;;;;;;;;;;;;;;5090580;28;20365;-68
2022/05/11 19:31:25;;;;;;;;;;;;;;;;;;5090933;27;19916;-67
2022/05/11 19:35:59;;;;;;;;;;;;;;;;;;5091280;27;19916;-68
2022/05/11 19:38:25;;;;;;;;;;;;;;;;;;5091282;28;20345;-69
2022/05/11 19:40:51;;;;;;;;;;;;;;;;;;5088960;28;20368;-69
2022/05/11 19:43:17;;;;;;;;;;;;;;;;;;5089128;28;19908;-69
2022/05/11 19:50:28;;;;;;;;;;;;;;;;;;5089448;27;20359;-67
2022/05/11 19:55:21;;;;;;;;;;;;;;;;;;5152066;27;20013;-68
2022/05/11 20:05:51;;;;;;;;;;;;;;;;;;5091771;28;19912;-68
2022/05/11 20:18:45;;;;;;;;;;;;;;;;;;5091449;27;20384;-68
2022/05/11 20:25:07;;;;;;;;;;;;;;;;;;5091337;28;19919;-67
2022/05/11 20:36:09;;;;;;;;;;;;;;;;;;5090889;28;19919;-67
2022/05/11 20:38:35;;;;;;;;;;;;;;;;;;5091173;28;19909;-68
2022/05/11 20:43:11;;;;;;;;;;;;;;;;;;5090916;28;19912;-67
2022/05/11 20:45:37;;;;;;;;;;;;;;;;;;5091207;28;19916;-67
2022/05/11 20:49:49;;;;;;;;;;;;;;;;;;5091601;27;19920;-67
2022/05/11 20:52:15;;;;;;;;;;;;;;;;;;5091262;28;19912;-67
2022/05/11 20:58:16;;;;;;;;;;;;;;;;;;5090988;27;20384;-68
2022/05/11 21:00:42;;;;;;;;;;;;;;;;;;5091498;28;19995;-68
2022/05/11 21:04:29;;;;;;;;;;;;;;;;;;5090817;27;19916;-68
2022/05/11 21:08:35;;;;;;;;;;;;;;;;;;5091354;27;19916;-67